<?xml version="1.0" encoding="UTF-8" standalone="no" ?>
<gpx xmlns="http://www.topografix.com/GPX/1/1" xmlns:xsi="http://www.w3.org/2001/XMLSchema-instance" xsi:schemaLocation="http://www.topografix.com/GPX/1/1 http://www.topografix.com/GPX/1/1/gpx.xsd" version="1.1" creator="VisuGPX - https://www.visugpx.com">
  <metadata>
    <name>Avignon grenoble</name>
  </metadata>
  <wpt lat="44.89804" lon="5.55525">
    <ele>1218.1</ele>
    <name><![CDATA[Aiguillette lodge]]></name>
    <type><![CDATA[user]]></type>
  </wpt>
  <wpt lat="44.0914" lon="5.40804">
    <ele>759.9</ele>
    <name><![CDATA[Gite Pilpoil]]></name>
    <desc><![CDATA[Galerie Ciur (Boutique de cadeaux)
84390, Sault, Vaucluse, FRA]]></desc>
    <type><![CDATA[user]]></type>
  </wpt>
  <wpt lat="44.48597" lon="5.38038">
    <ele>552.8</ele>
    <name><![CDATA[Gite Praboyer]]></name>
    <type><![CDATA[user]]></type>
  </wpt>
  <trk>
    <name><![CDATA[Vendredi 26]]></name>
    <extensions>
      <line xmlns="http://www.topografix.com/GPX/gpx_style/0/2">
        <color>f5270a</color>
        <opacity>0.3</opacity>
        <width>6</width>
      </line>
    </extensions>
    <trkseg>
      <trkpt lat="43.94283" lon="4.80289">
        <ele>20</ele>
        <time>2022-12-30T15:15:31Z</time>
      </trkpt>
      <trkpt lat="43.94254" lon="4.8087">
        <ele>25.8</ele>
        <time>2022-12-30T15:16:18Z</time>
      </trkpt>
      <trkpt lat="43.94387" lon="4.81506">
        <ele>23.9</ele>
        <time>2022-12-30T15:17:11Z</time>
      </trkpt>
      <trkpt lat="43.94874" lon="4.81891">
        <ele>26.5</ele>
        <time>2022-12-30T15:18:13Z</time>
      </trkpt>
      <trkpt lat="43.94647" lon="4.83287">
        <ele>35.6</ele>
        <time>2022-12-30T15:20:08Z</time>
      </trkpt>
      <trkpt lat="43.94609" lon="4.84295">
        <ele>28.9</ele>
        <time>2022-12-30T15:21:30Z</time>
      </trkpt>
      <trkpt lat="43.94808" lon="4.84297">
        <ele>26.1</ele>
        <time>2022-12-30T15:21:53Z</time>
      </trkpt>
      <trkpt lat="43.9492" lon="4.84497">
        <ele>28.6</ele>
        <time>2022-12-30T15:22:13Z</time>
      </trkpt>
      <trkpt lat="43.94968" lon="4.85192">
        <ele>23.4</ele>
        <time>2022-12-30T15:23:10Z</time>
      </trkpt>
      <trkpt lat="43.9511" lon="4.85252">
        <ele>22.6</ele>
        <time>2022-12-30T15:23:27Z</time>
      </trkpt>
      <trkpt lat="43.95076" lon="4.85781">
        <ele>28</ele>
        <time>2022-12-30T15:24:10Z</time>
      </trkpt>
      <trkpt lat="43.94968" lon="4.85868">
        <ele>26.9</ele>
        <time>2022-12-30T15:24:25Z</time>
      </trkpt>
      <trkpt lat="43.95022" lon="4.8608">
        <ele>19.7</ele>
        <time>2022-12-30T15:24:45Z</time>
      </trkpt>
      <trkpt lat="43.95122" lon="4.86052">
        <ele>25.4</ele>
        <time>2022-12-30T15:24:57Z</time>
      </trkpt>
      <trkpt lat="43.9529" lon="4.86831">
        <ele>26</ele>
        <time>2022-12-30T15:26:02Z</time>
      </trkpt>
      <trkpt lat="43.95397" lon="4.90724">
        <ele>48.4</ele>
        <time>2022-12-30T15:31:15Z</time>
      </trkpt>
      <trkpt lat="43.95348" lon="4.92192">
        <ele>96.9</ele>
        <time>2022-12-30T15:33:13Z</time>
      </trkpt>
      <trkpt lat="43.95613" lon="4.92448">
        <ele>92</ele>
        <time>2022-12-30T15:33:49Z</time>
      </trkpt>
      <trkpt lat="43.95625" lon="4.93057">
        <ele>64</ele>
        <time>2022-12-30T15:34:42Z</time>
      </trkpt>
      <trkpt lat="43.96267" lon="4.94926">
        <ele>46.1</ele>
        <time>2022-12-30T15:37:31Z</time>
      </trkpt>
      <trkpt lat="43.96654" lon="4.97499">
        <ele>42.1</ele>
        <time>2022-12-30T15:41:02Z</time>
      </trkpt>
      <trkpt lat="43.96943" lon="4.98345">
        <ele>51.8</ele>
        <time>2022-12-30T15:42:17Z</time>
      </trkpt>
      <trkpt lat="43.9711" lon="4.98599">
        <ele>43.3</ele>
        <time>2022-12-30T15:42:45Z</time>
      </trkpt>
      <trkpt lat="43.97378" lon="4.9944">
        <ele>44.5</ele>
        <time>2022-12-30T15:43:58Z</time>
      </trkpt>
      <trkpt lat="43.9791" lon="5.00223">
        <ele>40.4</ele>
        <time>2022-12-30T15:45:26Z</time>
      </trkpt>
      <trkpt lat="43.98025" lon="5.01492">
        <ele>46.7</ele>
        <time>2022-12-30T15:47:09Z</time>
      </trkpt>
      <trkpt lat="43.98521" lon="5.02563">
        <ele>55.2</ele>
        <time>2022-12-30T15:48:51Z</time>
      </trkpt>
      <trkpt lat="43.98884" lon="5.03121">
        <ele>53.9</ele>
        <time>2022-12-30T15:49:52Z</time>
      </trkpt>
      <trkpt lat="43.99362" lon="5.05277">
        <ele>80.8</ele>
        <time>2022-12-30T15:52:53Z</time>
      </trkpt>
      <trkpt lat="43.99741" lon="5.06192">
        <ele>97.3</ele>
        <time>2022-12-30T15:54:20Z</time>
      </trkpt>
      <trkpt lat="43.99662" lon="5.06325">
        <ele>95.6</ele>
        <time>2022-12-30T15:54:34Z</time>
      </trkpt>
      <trkpt lat="43.99818" lon="5.07342">
        <ele>94.3</ele>
        <time>2022-12-30T15:55:58Z</time>
      </trkpt>
      <trkpt lat="43.9985" lon="5.08517">
        <ele>130.2</ele>
        <time>2022-12-30T15:57:34Z</time>
      </trkpt>
      <trkpt lat="44.0024" lon="5.09292">
        <ele>131.3</ele>
        <time>2022-12-30T15:58:49Z</time>
      </trkpt>
      <trkpt lat="44.00779" lon="5.10777">
        <ele>158.3</ele>
        <time>2022-12-30T16:01:04Z</time>
      </trkpt>
      <trkpt lat="44.00494" lon="5.1105">
        <ele>164.7</ele>
        <time>2022-12-30T16:01:42Z</time>
      </trkpt>
      <trkpt lat="44.00749" lon="5.12299">
        <ele>174.7</ele>
        <time>2022-12-30T16:03:26Z</time>
      </trkpt>
      <trkpt lat="44.01044" lon="5.13212">
        <ele>197.5</ele>
        <time>2022-12-30T16:04:49Z</time>
      </trkpt>
      <trkpt lat="44.01042" lon="5.13495">
        <ele>190</ele>
        <time>2022-12-30T16:05:11Z</time>
      </trkpt>
      <trkpt lat="44.00949" lon="5.13584">
        <ele>190.6</ele>
        <time>2022-12-30T16:05:24Z</time>
      </trkpt>
      <trkpt lat="44.01068" lon="5.13312">
        <ele>197.5</ele>
        <time>2022-12-30T16:05:49Z</time>
      </trkpt>
      <trkpt lat="44.00326" lon="5.14406">
        <ele>165.8</ele>
        <time>2022-12-30T16:07:50Z</time>
      </trkpt>
      <trkpt lat="44.00928" lon="5.1436">
        <ele>166.3</ele>
        <time>2022-12-30T16:08:57Z</time>
      </trkpt>
      <trkpt lat="44.01806" lon="5.14519">
        <ele>183.2</ele>
        <time>2022-12-30T16:10:36Z</time>
      </trkpt>
      <trkpt lat="44.02341" lon="5.14959">
        <ele>194.6</ele>
        <time>2022-12-30T16:11:45Z</time>
      </trkpt>
      <trkpt lat="44.02169" lon="5.15822">
        <ele>211.1</ele>
        <time>2022-12-30T16:12:57Z</time>
      </trkpt>
      <trkpt lat="44.01847" lon="5.16291">
        <ele>206</ele>
        <time>2022-12-30T16:13:51Z</time>
      </trkpt>
      <trkpt lat="44.01643" lon="5.1643">
        <ele>209.3</ele>
        <time>2022-12-30T16:14:16Z</time>
      </trkpt>
      <trkpt lat="44.01286" lon="5.16944">
        <ele>231.4</ele>
        <time>2022-12-30T16:15:15Z</time>
      </trkpt>
      <trkpt lat="44.01424" lon="5.17213">
        <ele>262.7</ele>
        <time>2022-12-30T16:15:42Z</time>
      </trkpt>
      <trkpt lat="44.01465" lon="5.17656">
        <ele>279.4</ele>
      </trkpt>
      <trkpt lat="44.01465" lon="5.17748">
        <ele>285.2</ele>
      </trkpt>
      <trkpt lat="44.01436" lon="5.17892">
        <ele>291.3</ele>
      </trkpt>
      <trkpt lat="44.01452" lon="5.18012">
        <ele>290.1</ele>
      </trkpt>
      <trkpt lat="44.01538" lon="5.18248">
        <ele>300.9</ele>
      </trkpt>
      <trkpt lat="44.01521" lon="5.18397">
        <ele>299.9</ele>
        <time>2022-12-30T16:17:19Z</time>
      </trkpt>
      <trkpt lat="44.01404" lon="5.18525">
        <ele>313.8</ele>
        <time>2022-12-30T16:17:33Z</time>
      </trkpt>
      <trkpt lat="44.01456" lon="5.186">
        <ele>309.3</ele>
      </trkpt>
      <trkpt lat="44.01524" lon="5.18683">
        <ele>308.2</ele>
      </trkpt>
      <trkpt lat="44.01671" lon="5.18779">
        <ele>296.6</ele>
        <time>2022-12-30T16:18:12Z</time>
      </trkpt>
      <trkpt lat="44.01886" lon="5.19326">
        <ele>320.5</ele>
        <time>2022-12-30T16:19:01Z</time>
      </trkpt>
      <trkpt lat="44.01947" lon="5.1943">
        <ele>319</ele>
      </trkpt>
      <trkpt lat="44.02189" lon="5.19524">
        <ele>307.8</ele>
        <time>2022-12-30T16:19:39Z</time>
      </trkpt>
      <trkpt lat="44.02225" lon="5.19479">
        <ele>316.5</ele>
      </trkpt>
      <trkpt lat="44.02285" lon="5.19477">
        <ele>315.9</ele>
        <time>2022-12-30T16:19:51Z</time>
      </trkpt>
      <trkpt lat="44.02241" lon="5.19644">
        <ele>322.2</ele>
        <time>2022-12-30T16:20:05Z</time>
      </trkpt>
      <trkpt lat="44.023" lon="5.19722">
        <ele>334.1</ele>
      </trkpt>
      <trkpt lat="44.02405" lon="5.19758">
        <ele>342.6</ele>
      </trkpt>
      <trkpt lat="44.02529" lon="5.19769">
        <ele>352.1</ele>
        <time>2022-12-30T16:20:38Z</time>
      </trkpt>
      <trkpt lat="44.02498" lon="5.19821">
        <ele>352.9</ele>
      </trkpt>
      <trkpt lat="44.02541" lon="5.19907">
        <ele>357.4</ele>
        <time>2022-12-30T16:20:51Z</time>
      </trkpt>
      <trkpt lat="44.02524" lon="5.19977">
        <ele>363.9</ele>
      </trkpt>
      <trkpt lat="44.02423" lon="5.2013">
        <ele>351.6</ele>
        <time>2022-12-30T16:21:14Z</time>
      </trkpt>
      <trkpt lat="44.02437" lon="5.20186">
        <ele>354.7</ele>
      </trkpt>
      <trkpt lat="44.02532" lon="5.20271">
        <ele>348.8</ele>
      </trkpt>
      <trkpt lat="44.02577" lon="5.20353">
        <ele>338.2</ele>
        <time>2022-12-30T16:21:39Z</time>
      </trkpt>
      <trkpt lat="44.02712" lon="5.20339">
        <ele>335.6</ele>
        <time>2022-12-30T16:21:54Z</time>
      </trkpt>
      <trkpt lat="44.02922" lon="5.20647">
        <ele>315.6</ele>
        <time>2022-12-30T16:22:28Z</time>
      </trkpt>
      <trkpt lat="44.0296" lon="5.20846">
        <ele>304.8</ele>
        <time>2022-12-30T16:22:44Z</time>
      </trkpt>
      <trkpt lat="44.03109" lon="5.20994">
        <ele>288.7</ele>
        <time>2022-12-30T16:23:05Z</time>
      </trkpt>
      <trkpt lat="44.03135" lon="5.21063">
        <ele>293.7</ele>
      </trkpt>
      <trkpt lat="44.03129" lon="5.21145">
        <ele>287.1</ele>
      </trkpt>
      <trkpt lat="44.03098" lon="5.2116">
        <ele>288.1</ele>
      </trkpt>
      <trkpt lat="44.03119" lon="5.21239">
        <ele>282.4</ele>
      </trkpt>
      <trkpt lat="44.03106" lon="5.21344">
        <ele>269.4</ele>
      </trkpt>
      <trkpt lat="44.03147" lon="5.21434">
        <ele>262</ele>
      </trkpt>
      <trkpt lat="44.03136" lon="5.21645">
        <ele>253.3</ele>
      </trkpt>
      <trkpt lat="44.03149" lon="5.21751">
        <ele>251.9</ele>
        <time>2022-12-30T16:24:06Z</time>
      </trkpt>
      <trkpt lat="44.03371" lon="5.21855">
        <ele>257</ele>
        <time>2022-12-30T16:24:33Z</time>
      </trkpt>
      <trkpt lat="44.03402" lon="5.22093">
        <ele>267.6</ele>
      </trkpt>
      <trkpt lat="44.03475" lon="5.22271">
        <ele>266.8</ele>
        <time>2022-12-30T16:25:08Z</time>
      </trkpt>
      <trkpt lat="44.04023" lon="5.22535">
        <ele>265.6</ele>
      </trkpt>
      <trkpt lat="44.04406" lon="5.22675">
        <ele>268.2</ele>
      </trkpt>
      <trkpt lat="44.0466" lon="5.2276">
        <ele>261.7</ele>
      </trkpt>
      <trkpt lat="44.04782" lon="5.22851">
        <ele>256.8</ele>
        <time>2022-12-30T16:27:41Z</time>
      </trkpt>
      <trkpt lat="44.04899" lon="5.23001">
        <ele>271.4</ele>
      </trkpt>
      <trkpt lat="44.04961" lon="5.23016">
        <ele>269.6</ele>
        <time>2022-12-30T16:28:05Z</time>
      </trkpt>
      <trkpt lat="44.04918" lon="5.23333">
        <ele>276</ele>
      </trkpt>
      <trkpt lat="44.04975" lon="5.23994">
        <ele>289</ele>
        <time>2022-12-30T16:29:24Z</time>
      </trkpt>
      <trkpt lat="44.05116" lon="5.24146">
        <ele>303.1</ele>
        <time>2022-12-30T16:29:44Z</time>
      </trkpt>
      <trkpt lat="44.05234" lon="5.24179">
        <ele>316.5</ele>
      </trkpt>
      <trkpt lat="44.05279" lon="5.24164">
        <ele>317.1</ele>
      </trkpt>
      <trkpt lat="44.0533" lon="5.24104">
        <ele>318.3</ele>
      </trkpt>
      <trkpt lat="44.05421" lon="5.24222">
        <ele>322.1</ele>
        <time>2022-12-30T16:30:12Z</time>
      </trkpt>
      <trkpt lat="44.05489" lon="5.24385">
        <ele>328.8</ele>
      </trkpt>
      <trkpt lat="44.05555" lon="5.24432">
        <ele>331.3</ele>
      </trkpt>
      <trkpt lat="44.05695" lon="5.24692">
        <ele>340</ele>
      </trkpt>
      <trkpt lat="44.05798" lon="5.24788">
        <ele>347.3</ele>
      </trkpt>
      <trkpt lat="44.05806" lon="5.2485">
        <ele>343.9</ele>
      </trkpt>
      <trkpt lat="44.05766" lon="5.24868">
        <ele>352.4</ele>
      </trkpt>
      <trkpt lat="44.05718" lon="5.24799">
        <ele>349.7</ele>
      </trkpt>
      <trkpt lat="44.05649" lon="5.24726">
        <ele>352.3</ele>
      </trkpt>
      <trkpt lat="44.05543" lon="5.24709">
        <ele>358</ele>
      </trkpt>
      <trkpt lat="44.05483" lon="5.24725">
        <ele>360.9</ele>
      </trkpt>
      <trkpt lat="44.05418" lon="5.247">
        <ele>362</ele>
      </trkpt>
      <trkpt lat="44.05317" lon="5.24779">
        <ele>368.2</ele>
      </trkpt>
      <trkpt lat="44.05214" lon="5.2478">
        <ele>371.8</ele>
      </trkpt>
      <trkpt lat="44.05122" lon="5.24773">
        <ele>376.7</ele>
      </trkpt>
      <trkpt lat="44.05114" lon="5.24696">
        <ele>376.8</ele>
      </trkpt>
      <trkpt lat="44.05172" lon="5.24679">
        <ele>379.4</ele>
      </trkpt>
      <trkpt lat="44.05177" lon="5.24627">
        <ele>381.4</ele>
      </trkpt>
      <trkpt lat="44.05078" lon="5.24604">
        <ele>385.5</ele>
      </trkpt>
      <trkpt lat="44.04815" lon="5.24604">
        <ele>395.6</ele>
      </trkpt>
      <trkpt lat="44.04714" lon="5.24625">
        <ele>400.1</ele>
      </trkpt>
      <trkpt lat="44.04566" lon="5.2455">
        <ele>405.5</ele>
      </trkpt>
      <trkpt lat="44.04455" lon="5.24606">
        <ele>411</ele>
      </trkpt>
      <trkpt lat="44.04406" lon="5.24689">
        <ele>415.2</ele>
      </trkpt>
      <trkpt lat="44.04342" lon="5.2467">
        <ele>418.3</ele>
      </trkpt>
      <trkpt lat="44.04318" lon="5.24599">
        <ele>418.6</ele>
      </trkpt>
      <trkpt lat="44.04178" lon="5.24679">
        <ele>425.3</ele>
      </trkpt>
      <trkpt lat="44.04025" lon="5.24694">
        <ele>430</ele>
      </trkpt>
      <trkpt lat="44.03988" lon="5.2478">
        <ele>433.5</ele>
      </trkpt>
      <trkpt lat="44.04196" lon="5.25056">
        <ele>429.1</ele>
      </trkpt>
      <trkpt lat="44.04458" lon="5.25426">
        <ele>424.7</ele>
      </trkpt>
      <trkpt lat="44.04445" lon="5.25511">
        <ele>428.8</ele>
      </trkpt>
      <trkpt lat="44.04378" lon="5.25524">
        <ele>432.2</ele>
      </trkpt>
      <trkpt lat="44.04289" lon="5.25496">
        <ele>432.6</ele>
      </trkpt>
      <trkpt lat="44.04207" lon="5.25552">
        <ele>435.6</ele>
      </trkpt>
      <trkpt lat="44.04201" lon="5.25612">
        <ele>437.8</ele>
      </trkpt>
      <trkpt lat="44.03973" lon="5.25558">
        <ele>443.4</ele>
      </trkpt>
      <trkpt lat="44.03738" lon="5.25621">
        <ele>451.6</ele>
      </trkpt>
      <trkpt lat="44.03665" lon="5.25685">
        <ele>454.2</ele>
      </trkpt>
      <trkpt lat="44.03632" lon="5.25732">
        <ele>455.3</ele>
      </trkpt>
      <trkpt lat="44.0352" lon="5.26353">
        <ele>466.6</ele>
      </trkpt>
      <trkpt lat="44.03849" lon="5.26695">
        <ele>448.2</ele>
      </trkpt>
      <trkpt lat="44.04284" lon="5.26912">
        <ele>487.1</ele>
      </trkpt>
      <trkpt lat="44.04235" lon="5.27126">
        <ele>486.9</ele>
      </trkpt>
      <trkpt lat="44.04621" lon="5.27653">
        <ele>442</ele>
      </trkpt>
      <trkpt lat="44.04797" lon="5.27545">
        <ele>509.9</ele>
      </trkpt>
      <trkpt lat="44.04786" lon="5.27829">
        <ele>511.4</ele>
      </trkpt>
      <trkpt lat="44.05026" lon="5.28154">
        <ele>528.6</ele>
      </trkpt>
      <trkpt lat="44.04879" lon="5.28563">
        <ele>486.5</ele>
      </trkpt>
      <trkpt lat="44.05299" lon="5.28751">
        <ele>501</ele>
      </trkpt>
      <trkpt lat="44.05324" lon="5.28906">
        <ele>489.9</ele>
      </trkpt>
      <trkpt lat="44.05384" lon="5.2916">
        <ele>482.1</ele>
      </trkpt>
      <trkpt lat="44.05758" lon="5.29803">
        <ele>526.7</ele>
      </trkpt>
      <trkpt lat="44.06162" lon="5.30233">
        <ele>486.7</ele>
      </trkpt>
      <trkpt lat="44.06471" lon="5.3031">
        <ele>531.5</ele>
      </trkpt>
      <trkpt lat="44.07007" lon="5.30615">
        <ele>606.8</ele>
      </trkpt>
      <trkpt lat="44.066" lon="5.30863">
        <ele>548.5</ele>
      </trkpt>
      <trkpt lat="44.06742" lon="5.31103">
        <ele>566.5</ele>
      </trkpt>
      <trkpt lat="44.06323" lon="5.31489">
        <ele>559.3</ele>
      </trkpt>
      <trkpt lat="44.06699" lon="5.31515">
        <ele>602.9</ele>
      </trkpt>
      <trkpt lat="44.06724" lon="5.31944">
        <ele>609.3</ele>
      </trkpt>
      <trkpt lat="44.0687" lon="5.32104">
        <ele>620.2</ele>
      </trkpt>
      <trkpt lat="44.06651" lon="5.32301">
        <ele>651.1</ele>
      </trkpt>
      <trkpt lat="44.06752" lon="5.32469">
        <ele>636.2</ele>
      </trkpt>
      <trkpt lat="44.06614" lon="5.32541">
        <ele>654.4</ele>
      </trkpt>
      <trkpt lat="44.06514" lon="5.32489">
        <ele>662.6</ele>
      </trkpt>
      <trkpt lat="44.06412" lon="5.32224">
        <ele>626.4</ele>
      </trkpt>
      <trkpt lat="44.06517" lon="5.31966">
        <ele>617.3</ele>
      </trkpt>
      <trkpt lat="44.06059" lon="5.32174">
        <ele>719.5</ele>
      </trkpt>
      <trkpt lat="44.0541" lon="5.33156">
        <ele>819.3</ele>
      </trkpt>
      <trkpt lat="44.04902" lon="5.33471">
        <ele>731.3</ele>
      </trkpt>
      <trkpt lat="44.04669" lon="5.33287">
        <ele>744.2</ele>
      </trkpt>
      <trkpt lat="44.04747" lon="5.34142">
        <ele>736.7</ele>
      </trkpt>
      <trkpt lat="44.05288" lon="5.34516">
        <ele>730.1</ele>
      </trkpt>
      <trkpt lat="44.05235" lon="5.34757">
        <ele>679.5</ele>
      </trkpt>
      <trkpt lat="44.05425" lon="5.3492">
        <ele>728.3</ele>
      </trkpt>
      <trkpt lat="44.0565" lon="5.35283">
        <ele>682.3</ele>
      </trkpt>
      <trkpt lat="44.0652" lon="5.35798">
        <ele>643.7</ele>
      </trkpt>
      <trkpt lat="44.07997" lon="5.37361">
        <ele>654.9</ele>
      </trkpt>
      <trkpt lat="44.0895" lon="5.3809">
        <ele>671</ele>
      </trkpt>
      <trkpt lat="44.09313" lon="5.38553">
        <ele>681.8</ele>
      </trkpt>
      <trkpt lat="44.09369" lon="5.39892">
        <ele>686.8</ele>
      </trkpt>
      <trkpt lat="44.08977" lon="5.40895">
        <ele>719.1</ele>
      </trkpt>
      <trkpt lat="44.10055" lon="5.40935">
        <ele>711</ele>
      </trkpt>
      <trkpt lat="44.09775" lon="5.40583">
        <ele>693</ele>
      </trkpt>
      <trkpt lat="44.09942" lon="5.40261">
        <ele>712</ele>
      </trkpt>
    </trkseg>
  </trk>
</gpx>